sensor_id;sensor_type;location;lat;lon;timestamp;pressure;altitude;pressure_sealevel;temperature;humidity
7834;BME280;3962;42.696;23.354;2024-03-08T00:00:12;95212.25;;;5.92;94.86
7834;BME280;3962;42.696;23.354;2024-03-08T00:02:39;95216.94;;;5.99;94.41
7834;BME280;3962;42.696;23.354;2024-03-08T00:05:07;95212.63;;;5.98;95.04
7834;BME280;3962;42.696;23.354;2024-03-08T00:07:36;95213.44;;;5.99;94.44
7834;BME280;3962;42.696;23.354;2024-03-08T00:10:03;95219.69;;;5.98;94.95
7834;BME280;3962;42.696;23.354;2024-03-08T00:12:30;95211.06;;;5.96;94.27
7834;BME280;3962;42.696;23.354;2024-03-08T00:14:56;95215.84;;;5.91;94.29
7834;BME280;3962;42.696;23.354;2024-03-08T00:17:24;95221.03;;;5.92;94.38
7834;BME280;3962;42.696;23.354;2024-03-08T00:19:52;95213.81;;;5.94;94.96
7834;BME280;3962;42.696;23.354;2024-03-08T00:22:19;95215.97;;;6.00;95.01
7834;BME280;3962;42.696;23.354;2024-03-08T00:24:48;95213.69;;;5.96;94.89
7834;BME280;3962;42.696;23.354;2024-03-08T00:27:16;95209.84;;;5.89;94.73
7834;BME280;3962;42.696;23.354;2024-03-08T00:29:43;95203.50;;;5.80;94.56
7834;BME280;3962;42.696;23.354;2024-03-08T00:32:10;95209.13;;;5.65;95.84
7834;BME280;3962;42.696;23.354;2024-03-08T00:34:37;95202.38;;;5.50;94.96
7834;BME280;3962;42.696;23.354;2024-03-08T00:37:04;95194.59;;;5.37;96.06
7834;BME280;3962;42.696;23.354;2024-03-08T00:39:31;95200.81;;;5.36;96.78
7834;BME280;3962;42.696;23.354;2024-03-08T00:42:00;95197.34;;;5.25;97.89
7834;BME280;3962;42.696;23.354;2024-03-08T00:44:27;95198.84;;;5.16;98.12
7834;BME280;3962;42.696;23.354;2024-03-08T00:46:53;95192.63;;;5.06;98.39
7834;BME280;3962;42.696;23.354;2024-03-08T00:49:20;95195.25;;;5.06;99.41
7834;BME280;3962;42.696;23.354;2024-03-08T00:51:48;95189.13;;;5.06;100.00
7834;BME280;3962;42.696;23.354;2024-03-08T00:54:15;95186.63;;;5.04;99.38
7834;BME280;3962;42.696;23.354;2024-03-08T00:56:41;95182.28;;;5.03;99.97
7834;BME280;3962;42.696;23.354;2024-03-08T00:59:10;95175.94;;;4.95;100.00
7834;BME280;3962;42.696;23.354;2024-03-08T01:02:14;95183.94;;;4.93;100.00
7834;BME280;3962;42.696;23.354;2024-03-08T01:04:42;95183.94;;;4.93;100.00
7834;BME280;3962;42.696;23.354;2024-03-08T01:07:09;95178.41;;;4.85;100.00
7834;BME280;3962;42.696;23.354;2024-03-08T01:09:36;95177.09;;;4.80;100.00
7834;BME280;3962;42.696;23.354;2024-03-08T01:12:03;95170.50;;;4.74;100.00
7834;BME280;3962;42.696;23.354;2024-03-08T01:14:31;95168.19;;;4.70;100.00
7834;BME280;3962;42.696;23.354;2024-03-08T01:16:58;95167.00;;;4.74;100.00
7834;BME280;3962;42.696;23.354;2024-03-08T01:19:25;95167.41;;;4.80;100.00
7834;BME280;3962;42.696;23.354;2024-03-08T01:21:52;95165.47;;;4.82;100.00
7834;BME280;3962;42.696;23.354;2024-03-08T01:24:21;95163.31;;;4.87;100.00
7834;BME280;3962;42.696;23.354;2024-03-08T01:26:48;95160.13;;;4.95;100.00
7834;BME280;3962;42.696;23.354;2024-03-08T01:29:15;95158.28;;;4.95;100.00
7834;BME280;3962;42.696;23.354;2024-03-08T01:31:43;95142.03;;;5.01;100.00
7834;BME280;3962;42.696;23.354;2024-03-08T01:34:10;95155.09;;;5.03;100.00
7834;BME280;3962;42.696;23.354;2024-03-08T01:36:37;95146.34;;;5.02;100.00
7834;BME280;3962;42.696;23.354;2024-03-08T01:39:05;95144.31;;;5.06;100.00
7834;BME280;3962;42.696;23.354;2024-03-08T01:41:33;95146.72;;;5.09;100.00
7834;BME280;3962;42.696;23.354;2024-03-08T01:44:01;95153.22;;;5.16;100.00
7834;BME280;3962;42.696;23.354;2024-03-08T01:46:28;95152.59;;;5.23;100.00
7834;BME280;3962;42.696;23.354;2024-03-08T01:48:58;95143.38;;;5.18;99.85
7834;BME280;3962;42.696;23.354;2024-03-08T01:51:27;95152.84;;;5.20;100.00
7834;BME280;3962;42.696;23.354;2024-03-08T01:53:55;95146.38;;;5.24;99.42
7834;BME280;3962;42.696;23.354;2024-03-08T01:56:24;95148.44;;;5.32;99.17
7834;BME280;3962;42.696;23.354;2024-03-08T01:58:52;95145.19;;;5.39;98.38
7834;BME280;3962;42.696;23.354;2024-03-08T02:01:18;95143.84;;;5.45;99.25
7834;BME280;3962;42.696;23.354;2024-03-08T02:03:45;95142.88;;;5.46;98.50
7834;BME280;3962;42.696;23.354;2024-03-08T02:06:13;95141.81;;;5.48;98.90
7834;BME280;3962;42.696;23.354;2024-03-08T02:08:44;95142.31;;;5.53;97.86
7834;BME280;3962;42.696;23.354;2024-03-08T02:11:12;95138.44;;;5.57;97.10
7834;BME280;3962;42.696;23.354;2024-03-08T02:13:39;95142.44;;;5.63;97.62
7834;BME280;3962;42.696;23.354;2024-03-08T02:16:06;95142.06;;;5.67;97.31
7834;BME280;3962;42.696;23.354;2024-03-08T02:18:34;95147.56;;;5.64;96.18
7834;BME280;3962;42.696;23.354;2024-03-08T02:21:03;95150.19;;;5.64;96.78
7834;BME280;3962;42.696;23.354;2024-03-08T02:23:31;95151.53;;;5.59;96.80
7834;BME280;3962;42.696;23.354;2024-03-08T02:26:10;95156.09;;;5.57;96.42
7834;BME280;3962;42.696;23.354;2024-03-08T02:28:37;95149.00;;;5.46;95.02
7834;BME280;3962;42.696;23.354;2024-03-08T02:31:05;95152.97;;;5.52;95.26
7834;BME280;3962;42.696;23.354;2024-03-08T02:33:33;95155.00;;;5.48;94.96
7834;BME280;3962;42.696;23.354;2024-03-08T02:36:02;95158.72;;;5.46;94.48
7834;BME280;3962;42.696;23.354;2024-03-08T02:38:29;95158.13;;;5.53;93.91
7834;BME280;3962;42.696;23.354;2024-03-08T02:40:56;95170.63;;;5.51;93.44
7834;BME280;3962;42.696;23.354;2024-03-08T02:43:23;95159.06;;;5.41;91.47
7834;BME280;3962;42.696;23.354;2024-03-08T02:45:50;95161.72;;;5.41;91.40
7834;BME280;3962;42.696;23.354;2024-03-08T02:48:18;95162.47;;;5.43;90.48
7834;BME280;3962;42.696;23.354;2024-03-08T02:50:58;95162.69;;;5.29;88.45
7834;BME280;3962;42.696;23.354;2024-03-08T02:53:28;95160.75;;;5.20;88.05
7834;BME280;3962;42.696;23.354;2024-03-08T02:55:55;95155.25;;;5.23;87.59
7834;BME280;3962;42.696;23.354;2024-03-08T02:58:22;95155.00;;;5.15;87.91
7834;BME280;3962;42.696;23.354;2024-03-08T03:00:49;95154.75;;;5.07;88.39
7834;BME280;3962;42.696;23.354;2024-03-08T03:06:37;95155.81;;;5.05;88.14
7834;BME280;3962;42.696;23.354;2024-03-08T03:09:06;95145.88;;;5.08;87.20
7834;BME280;3962;42.696;23.354;2024-03-08T03:11:35;95156.06;;;5.13;88.22
7834;BME280;3962;42.696;23.354;2024-03-08T03:14:03;95164.00;;;5.24;87.36
7834;BME280;3962;42.696;23.354;2024-03-08T03:16:30;95163.41;;;5.20;86.32
7834;BME280;3962;42.696;23.354;2024-03-08T03:18:56;95168.19;;;5.15;86.85
7834;BME280;3962;42.696;23.354;2024-03-08T03:21:24;95164.13;;;5.22;86.62
7834;BME280;3962;42.696;23.354;2024-03-08T03:23:51;95175.38;;;5.24;86.34
7834;BME280;3962;42.696;23.354;2024-03-08T03:26:19;95177.44;;;5.32;87.22
7834;BME280;3962;42.696;23.354;2024-03-08T03:28:47;95179.56;;;5.38;86.51
7834;BME280;3962;42.696;23.354;2024-03-08T03:31:14;95178.63;;;5.39;85.62
7834;BME280;3962;42.696;23.354;2024-03-08T03:33:40;95180.28;;;5.29;85.90
7834;BME280;3962;42.696;23.354;2024-03-08T03:36:07;95180.28;;;5.29;85.97
7834;BME280;3962;42.696;23.354;2024-03-08T03:38:35;95182.81;;;5.30;85.21
7834;BME280;3962;42.696;23.354;2024-03-08T03:41:02;95188.22;;;5.29;86.01
7834;BME280;3962;42.696;23.354;2024-03-08T03:43:37;95190.38;;;5.35;85.52
7834;BME280;3962;42.696;23.354;2024-03-08T03:46:06;95189.78;;;5.31;85.27
7834;BME280;3962;42.696;23.354;2024-03-08T03:48:32;95188.22;;;5.29;85.34
7834;BME280;3962;42.696;23.354;2024-03-08T03:50:59;95197.44;;;5.23;84.91
7834;BME280;3962;42.696;23.354;2024-03-08T03:53:26;95196.84;;;5.20;86.24
7834;BME280;3962;42.696;23.354;2024-03-08T03:55:53;95204.03;;;5.18;86.90
7834;BME280;3962;42.696;23.354;2024-03-08T03:58:19;95209.41;;;5.05;86.42
7834;BME280;3962;42.696;23.354;2024-03-08T04:00:49;95200.28;;;4.98;86.39
7834;BME280;3962;42.696;23.354;2024-03-08T04:03:15;95204.69;;;4.98;86.94
7834;BME280;3962;42.696;23.354;2024-03-08T04:05:43;95207.31;;;4.98;86.98
7834;BME280;3962;42.696;23.354;2024-03-08T04:08:20;95206.88;;;5.04;88.46
7834;BME280;3962;42.696;23.354;2024-03-08T04:10:46;95211.28;;;5.03;88.34
7834;BME280;3962;42.696;23.354;2024-03-08T04:13:13;95209.66;;;5.13;88.46
7834;BME280;3962;42.696;23.354;2024-03-08T04:15:41;95212.16;;;5.15;88.14
7834;BME280;3962;42.696;23.354;2024-03-08T04:18:10;95215.28;;;5.09;87.26
7834;BME280;3962;42.696;23.354;2024-03-08T04:20:37;95218.63;;;5.11;88.72
7834;BME280;3962;42.696;23.354;2024-03-08T04:23:05;95223.44;;;5.17;88.38
7834;BME280;3962;42.696;23.354;2024-03-08T04:28:35;95228.13;;;5.13;87.80
7834;BME280;3962;42.696;23.354;2024-03-08T04:34:23;95231.13;;;5.20;90.27
7834;BME280;3962;42.696;23.354;2024-03-08T04:36:50;95235.31;;;5.22;90.23
7834;BME280;3962;42.696;23.354;2024-03-08T04:39:17;95235.06;;;5.25;90.50
7834;BME280;3962;42.696;23.354;2024-03-08T04:41:44;95241.31;;;5.24;89.78
7834;BME280;3962;42.696;23.354;2024-03-08T04:44:11;95236.66;;;5.28;90.70
7834;BME280;3962;42.696;23.354;2024-03-08T04:46:38;95244.94;;;5.34;89.78
7834;BME280;3962;42.696;23.354;2024-03-08T04:49:05;95242.53;;;5.31;90.96
7834;BME280;3962;42.696;23.354;2024-03-08T04:51:34;95243.75;;;5.27;91.30
7834;BME280;3962;42.696;23.354;2024-03-08T04:54:00;95241.91;;;5.28;91.25
7834;BME280;3962;42.696;23.354;2024-03-08T04:56:27;95240.75;;;5.43;91.48
7834;BME280;3962;42.696;23.354;2024-03-08T04:58:54;95247.09;;;5.40;91.56
7834;BME280;3962;42.696;23.354;2024-03-08T05:01:21;95246.63;;;5.46;91.59
7834;BME280;3962;42.696;23.354;2024-03-08T05:03:47;95259.25;;;5.65;92.90
7834;BME280;3962;42.696;23.354;2024-03-08T05:06:15;95252.59;;;6.58;94.61
7834;BME280;3962;42.696;23.354;2024-03-08T05:08:43;95260.63;;;6.99;93.82
7834;BME280;3962;42.696;23.354;2024-03-08T05:11:12;95262.06;;;7.03;90.17
7834;BME280;3962;42.696;23.354;2024-03-08T05:13:40;95262.25;;;6.37;88.61
7834;BME280;3962;42.696;23.354;2024-03-08T05:16:07;95258.69;;;5.94;87.93
7834;BME280;3962;42.696;23.354;2024-03-08T05:18:35;95264.91;;;5.60;89.10
7834;BME280;3962;42.696;23.354;2024-03-08T05:21:02;95262.91;;;5.29;90.76
7834;BME280;3962;42.696;23.354;2024-03-08T05:23:29;95272.72;;;5.16;91.42
7834;BME280;3962;42.696;23.354;2024-03-08T05:25:58;95272.34;;;5.10;91.32
7834;BME280;3962;42.696;23.354;2024-03-08T05:28:24;95283.56;;;5.01;91.94
7834;BME280;3962;42.696;23.354;2024-03-08T05:30:51;95287.81;;;4.91;90.70
7834;BME280;3962;42.696;23.354;2024-03-08T05:33:24;95293.84;;;4.93;91.62
7834;BME280;3962;42.696;23.354;2024-03-08T05:35:52;95303.63;;;4.91;90.49
7834;BME280;3962;42.696;23.354;2024-03-08T05:38:19;95302.13;;;4.76;90.57
7834;BME280;3962;42.696;23.354;2024-03-08T05:40:46;95305.19;;;4.82;90.73
7834;BME280;3962;42.696;23.354;2024-03-08T05:43:14;95302.38;;;4.73;90.69
7834;BME280;3962;42.696;23.354;2024-03-08T05:45:43;95312.47;;;4.79;90.30
7834;BME280;3962;42.696;23.354;2024-03-08T05:48:09;95309.66;;;4.69;90.18
7834;BME280;3962;42.696;23.354;2024-03-08T05:50:38;95310.16;;;4.74;90.63
7834;BME280;3962;42.696;23.354;2024-03-08T05:53:04;95316.16;;;4.76;91.34
7834;BME280;3962;42.696;23.354;2024-03-08T05:55:32;95323.72;;;4.81;91.99
7834;BME280;3962;42.696;23.354;2024-03-08T05:58:00;95319.47;;;4.91;93.41
7834;BME280;3962;42.696;23.354;2024-03-08T06:00:28;95322.38;;;4.99;94.70
7834;BME280;3962;42.696;23.354;2024-03-08T06:02:56;95330.59;;;4.83;94.18
7834;BME280;3962;42.696;23.354;2024-03-08T06:05:24;95329.63;;;4.84;93.39
7834;BME280;3962;42.696;23.354;2024-03-08T06:07:50;95332.22;;;4.73;92.38
7834;BME280;3962;42.696;23.354;2024-03-08T06:10:19;95338.97;;;4.65;89.46
7834;BME280;3962;42.696;23.354;2024-03-08T06:12:45;95347.84;;;4.64;89.71
7834;BME280;3962;42.696;23.354;2024-03-08T06:15:12;95347.72;;;4.65;89.62
7834;BME280;3962;42.696;23.354;2024-03-08T06:17:41;95345.94;;;4.66;89.19
7834;BME280;3962;42.696;23.354;2024-03-08T06:20:09;95347.28;;;4.71;89.85
7834;BME280;3962;42.696;23.354;2024-03-08T06:22:38;95347.69;;;4.78;89.89
7834;BME280;3962;42.696;23.354;2024-03-08T06:25:06;95353.53;;;4.94;89.85
7834;BME280;3962;42.696;23.354;2024-03-08T06:27:33;95348.25;;;4.94;88.64
7834;BME280;3962;42.696;23.354;2024-03-08T06:30:00;95356.25;;;4.92;88.39
7834;BME280;3962;42.696;23.354;2024-03-08T06:32:27;95356.22;;;5.05;89.37
7834;BME280;3962;42.696;23.354;2024-03-08T06:34:55;95348.72;;;5.11;89.62
7834;BME280;3962;42.696;23.354;2024-03-08T06:37:21;95352.50;;;5.07;88.50
7834;BME280;3962;42.696;23.354;2024-03-08T06:39:49;95351.34;;;5.11;88.69
7834;BME280;3962;42.696;23.354;2024-03-08T06:42:17;95356.63;;;5.11;87.82
7834;BME280;3962;42.696;23.354;2024-03-08T06:44:44;95353.81;;;5.02;87.75
7834;BME280;3962;42.696;23.354;2024-03-08T06:47:14;95358.22;;;5.01;87.06
7834;BME280;3962;42.696;23.354;2024-03-08T06:49:41;95356.81;;;5.08;87.74
7834;BME280;3962;42.696;23.354;2024-03-08T06:52:10;95368.00;;;5.12;87.43
7834;BME280;3962;42.696;23.354;2024-03-08T06:54:37;95364.13;;;5.05;87.20
7834;BME280;3962;42.696;23.354;2024-03-08T06:57:04;95370.72;;;5.10;87.46
7834;BME280;3962;42.696;23.354;2024-03-08T06:59:31;95365.72;;;5.18;86.66
7834;BME280;3962;42.696;23.354;2024-03-08T07:01:58;95363.38;;;5.26;86.44
7834;BME280;3962;42.696;23.354;2024-03-08T07:04:25;95369.16;;;5.31;85.65
7834;BME280;3962;42.696;23.354;2024-03-08T07:06:55;95375.38;;;5.30;86.16
7834;BME280;3962;42.696;23.354;2024-03-08T07:09:24;95373.41;;;5.45;86.09
7834;BME280;3962;42.696;23.354;2024-03-08T07:11:51;95364.06;;;5.52;85.80
7834;BME280;3962;42.696;23.354;2024-03-08T07:14:21;95372.44;;;5.46;84.88
7834;BME280;3962;42.696;23.354;2024-03-08T07:16:48;95373.28;;;5.46;85.17
7834;BME280;3962;42.696;23.354;2024-03-08T07:19:15;95376.28;;;5.42;85.38
7834;BME280;3962;42.696;23.354;2024-03-08T07:21:42;95379.75;;;5.42;84.99
7834;BME280;3962;42.696;23.354;2024-03-08T07:24:09;95377.38;;;5.50;84.80
7834;BME280;3962;42.696;23.354;2024-03-08T07:26:54;95388.31;;;5.57;85.45
7834;BME280;3962;42.696;23.354;2024-03-08T07:29:21;95389.41;;;5.65;86.14
7834;BME280;3962;42.696;23.354;2024-03-08T07:31:48;95387.34;;;5.47;85.64
7834;BME280;3962;42.696;23.354;2024-03-08T07:34:26;95379.88;;;5.41;85.88
7834;BME280;3962;42.696;23.354;2024-03-08T07:36:53;95383.50;;;5.51;86.75
7834;BME280;3962;42.696;23.354;2024-03-08T07:39:21;95388.06;;;5.49;87.25
7834;BME280;3962;42.696;23.354;2024-03-08T07:41:49;95384.53;;;5.37;86.91
7834;BME280;3962;42.696;23.354;2024-03-08T07:44:19;95383.84;;;5.46;87.76
7834;BME280;3962;42.696;23.354;2024-03-08T07:46:46;95386.03;;;5.52;86.02
7834;BME280;3962;42.696;23.354;2024-03-08T07:49:12;95389.63;;;5.51;85.60
7834;BME280;3962;42.696;23.354;2024-03-08T07:51:40;95385.00;;;5.77;84.48
7834;BME280;3962;42.696;23.354;2024-03-08T07:54:07;95383.78;;;5.70;84.57
7834;BME280;3962;42.696;23.354;2024-03-08T07:56:34;95385.91;;;5.88;84.81
7834;BME280;3962;42.696;23.354;2024-03-08T07:59:01;95379.81;;;5.88;84.72
7834;BME280;3962;42.696;23.354;2024-03-08T08:01:30;95381.63;;;5.98;84.65
7834;BME280;3962;42.696;23.354;2024-03-08T08:03:59;95385.00;;;6.11;83.49
7834;BME280;3962;42.696;23.354;2024-03-08T08:06:26;95381.03;;;6.06;80.97
7834;BME280;3962;42.696;23.354;2024-03-08T08:08:53;95380.81;;;6.20;81.82
7834;BME280;3962;42.696;23.354;2024-03-08T08:11:21;95386.34;;;6.28;80.44
7834;BME280;3962;42.696;23.354;2024-03-08T08:13:48;95386.09;;;6.31;80.58
7834;BME280;3962;42.696;23.354;2024-03-08T08:16:15;95382.25;;;6.35;78.94
7834;BME280;3962;42.696;23.354;2024-03-08T08:18:43;95370.00;;;6.12;77.69
7834;BME280;3962;42.696;23.354;2024-03-08T08:21:11;95380.59;;;6.34;78.07
7834;BME280;3962;42.696;23.354;2024-03-08T08:23:38;95381.53;;;6.55;78.13
7834;BME280;3962;42.696;23.354;2024-03-08T08:26:05;95375.97;;;6.91;77.49
7834;BME280;3962;42.696;23.354;2024-03-08T08:28:33;95379.66;;;7.10;75.98
7834;BME280;3962;42.696;23.354;2024-03-08T08:30:59;95380.09;;;7.26;75.41
7834;BME280;3962;42.696;23.354;2024-03-08T08:33:26;95383.31;;;7.61;75.81
7834;BME280;3962;42.696;23.354;2024-03-08T08:35:54;95385.19;;;7.90;74.20
7834;BME280;3962;42.696;23.354;2024-03-08T08:38:21;95394.38;;;7.86;70.88
7834;BME280;3962;42.696;23.354;2024-03-08T08:40:48;95383.00;;;7.75;71.18
7834;BME280;3962;42.696;23.354;2024-03-08T08:43:15;95378.09;;;7.91;70.95
7834;BME280;3962;42.696;23.354;2024-03-08T08:45:43;95379.75;;;8.03;70.73
7834;BME280;3962;42.696;23.354;2024-03-08T08:48:10;95378.09;;;7.91;71.10
7834;BME280;3962;42.696;23.354;2024-03-08T08:50:37;95372.31;;;7.76;71.87
7834;BME280;3962;42.696;23.354;2024-03-08T08:53:06;95377.03;;;7.62;72.86
7834;BME280;3962;42.696;23.354;2024-03-08T08:55:33;95369.72;;;7.34;73.68
7834;BME280;3962;42.696;23.354;2024-03-08T08:58:01;95379.53;;;7.43;73.90
7834;BME280;3962;42.696;23.354;2024-03-08T09:00:28;95376.44;;;7.90;73.79
7834;BME280;3962;42.696;23.354;2024-03-08T09:02:56;95373.03;;;8.19;71.17
7834;BME280;3962;42.696;23.354;2024-03-08T09:05:24;95375.69;;;8.49;70.62
7834;BME280;3962;42.696;23.354;2024-03-08T09:07:52;95369.28;;;8.82;69.18
7834;BME280;3962;42.696;23.354;2024-03-08T09:10:20;95376.06;;;9.14;68.88
7834;BME280;3962;42.696;23.354;2024-03-08T09:12:47;95369.34;;;9.20;68.12
7834;BME280;3962;42.696;23.354;2024-03-08T09:15:14;95368.00;;;9.25;67.80
7834;BME280;3962;42.696;23.354;2024-03-08T09:17:43;95368.41;;;9.30;67.82
7834;BME280;3962;42.696;23.354;2024-03-08T09:20:11;95364.25;;;9.56;66.82
7834;BME280;3962;42.696;23.354;2024-03-08T09:22:40;95368.00;;;9.73;66.66
7834;BME280;3962;42.696;23.354;2024-03-08T09:25:07;95362.28;;;9.77;66.38
7834;BME280;3962;42.696;23.354;2024-03-08T09:27:36;95362.84;;;9.90;66.47
7834;BME280;3962;42.696;23.354;2024-03-08T09:30:06;95371.22;;;9.67;66.06
7834;BME280;3962;42.696;23.354;2024-03-08T09:32:33;95376.91;;;8.75;67.25
7834;BME280;3962;42.696;23.354;2024-03-08T09:35:00;95368.88;;;8.96;67.45
7834;BME280;3962;42.696;23.354;2024-03-08T09:37:27;95368.28;;;9.41;67.15
7834;BME280;3962;42.696;23.354;2024-03-08T09:39:53;95362.72;;;9.92;65.23
7834;BME280;3962;42.696;23.354;2024-03-08T09:42:20;95366.81;;;10.42;63.47
7834;BME280;3962;42.696;23.354;2024-03-08T09:44:49;95360.28;;;10.36;61.32
7834;BME280;3962;42.696;23.354;2024-03-08T09:47:18;95361.97;;;9.99;62.28
7834;BME280;3962;42.696;23.354;2024-03-08T09:49:45;95366.22;;;10.11;61.80
7834;BME280;3962;42.696;23.354;2024-03-08T09:52:12;95361.06;;;10.56;63.39
7834;BME280;3962;42.696;23.354;2024-03-08T09:54:39;95366.50;;;10.54;62.42
7834;BME280;3962;42.696;23.354;2024-03-08T09:57:10;95366.72;;;10.15;64.00
7834;BME280;3962;42.696;23.354;2024-03-08T09:59:37;95361.31;;;9.59;64.96
7834;BME280;3962;42.696;23.354;2024-03-08T10:02:17;95372.97;;;9.19;65.91
7834;BME280;3962;42.696;23.354;2024-03-08T10:04:44;95358.31;;;9.15;66.95
7834;BME280;3962;42.696;23.354;2024-03-08T10:07:13;95364.09;;;9.77;66.11
7834;BME280;3962;42.696;23.354;2024-03-08T10:09:40;95363.94;;;9.97;65.05
7834;BME280;3962;42.696;23.354;2024-03-08T10:12:12;95364.41;;;9.64;62.54
7834;BME280;3962;42.696;23.354;2024-03-08T10:14:40;95368.50;;;9.10;63.90
7834;BME280;3962;42.696;23.354;2024-03-08T10:17:07;95363.41;;;8.88;63.97
7834;BME280;3962;42.696;23.354;2024-03-08T10:19:36;95364.91;;;9.20;63.51
7834;BME280;3962;42.696;23.354;2024-03-08T10:22:03;95355.28;;;9.29;64.57
7834;BME280;3962;42.696;23.354;2024-03-08T10:24:30;95353.75;;;9.74;64.33
7834;BME280;3962;42.696;23.354;2024-03-08T10:26:59;95361.03;;;9.72;64.40
7834;BME280;3962;42.696;23.354;2024-03-08T10:29:31;95358.50;;;9.80;64.63
7834;BME280;3962;42.696;23.354;2024-03-08T10:31:58;95358.78;;;9.39;64.22
7834;BME280;3962;42.696;23.354;2024-03-08T10:34:25;95356.50;;;9.25;63.54
7834;BME280;3962;42.696;23.354;2024-03-08T10:36:59;95354.97;;;9.22;65.30
7834;BME280;3962;42.696;23.354;2024-03-08T10:39:34;95343.81;;;9.28;65.63
7834;BME280;3962;42.696;23.354;2024-03-08T10:42:04;95341.16;;;9.95;64.34
7834;BME280;3962;42.696;23.354;2024-03-08T10:44:42;95347.19;;;9.49;64.55
7834;BME280;3962;42.696;23.354;2024-03-08T10:47:17;95340.06;;;9.59;64.67
7834;BME280;3962;42.696;23.354;2024-03-08T10:49:51;95342.44;;;9.72;62.55
7834;BME280;3962;42.696;23.354;2024-03-08T10:52:22;95340.72;;;9.99;62.97
7834;BME280;3962;42.696;23.354;2024-03-08T10:54:51;95331.09;;;10.08;63.07
7834;BME280;3962;42.696;23.354;2024-03-08T10:57:19;95334.78;;;10.34;62.32
7834;BME280;3962;42.696;23.354;2024-03-08T10:59:50;95328.94;;;10.30;60.62
7834;BME280;3962;42.696;23.354;2024-03-08T11:02:17;95330.16;;;10.36;61.47
7834;BME280;3962;42.696;23.354;2024-03-08T11:04:49;95328.84;;;9.75;62.29
7834;BME280;3962;42.696;23.354;2024-03-08T11:07:19;95331.38;;;9.48;63.69
7834;BME280;3962;42.696;23.354;2024-03-08T11:09:49;95324.50;;;9.07;64.23
7834;BME280;3962;42.696;23.354;2024-03-08T11:12:20;95317.91;;;8.83;65.06
7834;BME280;3962;42.696;23.354;2024-03-08T11:14:51;95318.38;;;8.67;65.38
7834;BME280;3962;42.696;23.354;2024-03-08T11:17:27;95324.97;;;8.73;65.53
7834;BME280;3962;42.696;23.354;2024-03-08T11:20:09;95324.91;;;9.03;64.34
7834;BME280;3962;42.696;23.354;2024-03-08T11:22:41;95319.75;;;9.11;63.18
7834;BME280;3962;42.696;23.354;2024-03-08T11:25:34;95312.25;;;9.54;62.90
7834;BME280;3962;42.696;23.354;2024-03-08T11:28:14;95307.84;;;10.10;61.05
7834;BME280;3962;42.696;23.354;2024-03-08T11:30:44;95312.44;;;10.54;60.51
7834;BME280;3962;42.696;23.354;2024-03-08T11:33:12;95297.94;;;10.75;57.86
7834;BME280;3962;42.696;23.354;2024-03-08T11:35:41;95304.63;;;10.52;57.24
7834;BME280;3962;42.696;23.354;2024-03-08T11:38:12;95302.22;;;10.59;57.05
7834;BME280;3962;42.696;23.354;2024-03-08T11:40:41;95294.09;;;10.60;56.98
7834;BME280;3962;42.696;23.354;2024-03-08T11:43:08;95295.22;;;10.31;57.82
7834;BME280;3962;42.696;23.354;2024-03-08T11:45:36;95287.72;;;10.07;58.15
7834;BME280;3962;42.696;23.354;2024-03-08T11:48:04;95296.28;;;9.73;57.98
7834;BME280;3962;42.696;23.354;2024-03-08T11:50:30;95283.59;;;9.57;57.81
7834;BME280;3962;42.696;23.354;2024-03-08T11:53:02;95291.53;;;9.38;58.10
7834;BME280;3962;42.696;23.354;2024-03-08T11:55:31;95299.22;;;9.03;58.74
7834;BME280;3962;42.696;23.354;2024-03-08T11:58:05;95293.50;;;9.55;58.95
7834;BME280;3962;42.696;23.354;2024-03-08T12:00:36;95292.34;;;10.05;59.53
7834;BME280;3962;42.696;23.354;2024-03-08T12:03:08;95299.88;;;10.56;57.61
7834;BME280;3962;42.696;23.354;2024-03-08T12:05:36;95297.34;;;10.54;56.96
7834;BME280;3962;42.696;23.354;2024-03-08T12:08:04;95297.91;;;11.02;57.91
7834;BME280;3962;42.696;23.354;2024-03-08T12:10:33;95289.47;;;10.62;55.76
7834;BME280;3962;42.696;23.354;2024-03-08T12:13:00;95297.31;;;10.27;56.02
7834;BME280;3962;42.696;23.354;2024-03-08T12:15:31;95287.25;;;10.58;55.40
7834;BME280;3962;42.696;23.354;2024-03-08T12:17:59;95290.00;;;10.66;56.97
7834;BME280;3962;42.696;23.354;2024-03-08T12:20:28;95294.91;;;10.34;57.99
7834;BME280;3962;42.696;23.354;2024-03-08T12:22:56;95284.34;;;9.96;58.47
7834;BME280;3962;42.696;23.354;2024-03-08T12:25:26;95288.31;;;9.82;59.91
7834;BME280;3962;42.696;23.354;2024-03-08T12:27:54;95288.44;;;9.71;60.49
7834;BME280;3962;42.696;23.354;2024-03-08T12:30:23;95280.47;;;9.81;61.10
7834;BME280;3962;42.696;23.354;2024-03-08T12:32:55;95281.19;;;9.73;60.64
7834;BME280;3962;42.696;23.354;2024-03-08T12:35:24;95281.25;;;10.00;59.86
7834;BME280;3962;42.696;23.354;2024-03-08T12:37:53;95275.22;;;10.17;59.39
7834;BME280;3962;42.696;23.354;2024-03-08T12:40:26;95274.47;;;9.79;59.99
7834;BME280;3962;42.696;23.354;2024-03-08T12:42:54;95282.03;;;9.45;60.50
7834;BME280;3962;42.696;23.354;2024-03-08T12:45:21;95279.94;;;9.58;60.87
7834;BME280;3962;42.696;23.354;2024-03-08T12:47:49;95255.59;;;9.72;60.64
7834;BME280;3962;42.696;23.354;2024-03-08T12:50:18;95267.84;;;9.83;59.58
7834;BME280;3962;42.696;23.354;2024-03-08T12:52:45;95268.78;;;10.20;58.88
7834;BME280;3962;42.696;23.354;2024-03-08T12:55:12;95270.44;;;10.21;57.73
7834;BME280;3962;42.696;23.354;2024-03-08T12:57:39;95271.47;;;10.01;57.94
7834;BME280;3962;42.696;23.354;2024-03-08T13:00:07;95265.97;;;10.21;58.24
7834;BME280;3962;42.696;23.354;2024-03-08T13:02:39;95264.56;;;10.27;56.69
7834;BME280;3962;42.696;23.354;2024-03-08T13:05:07;95262.34;;;10.22;57.08
7834;BME280;3962;42.696;23.354;2024-03-08T13:07:41;95272.09;;;10.31;57.66
7834;BME280;3962;42.696;23.354;2024-03-08T13:10:11;95272.53;;;10.27;56.79
7834;BME280;3962;42.696;23.354;2024-03-08T13:12:40;95271.19;;;10.13;57.19
7834;BME280;3962;42.696;23.354;2024-03-08T13:15:07;95254.69;;;9.91;58.89
7834;BME280;3962;42.696;23.354;2024-03-08T13:17:37;95270.25;;;9.95;57.25
7834;BME280;3962;42.696;23.354;2024-03-08T13:20:07;95267.19;;;9.81;58.16
7834;BME280;3962;42.696;23.354;2024-03-08T13:22:34;95262.16;;;9.78;57.79
7834;BME280;3962;42.696;23.354;2024-03-08T13:25:03;95264.22;;;10.03;57.83
7834;BME280;3962;42.696;23.354;2024-03-08T13:27:30;95268.22;;;10.16;57.56
7834;BME280;3962;42.696;23.354;2024-03-08T13:29:57;95269.91;;;10.81;56.85
7834;BME280;3962;42.696;23.354;2024-03-08T13:32:24;95268.66;;;10.48;55.82
7834;BME280;3962;42.696;23.354;2024-03-08T13:34:52;95261.09;;;10.17;56.78